Melchior Schulte — 9V3053 — position and weather

sailwx.info

Track history (hours):
 
Tides and Currents Weather Stations Pressure Air Temp Water Temp Dewpoint Dewpoint Depression Visibility Wind Speed Wind Dir Waves Ship Positions

Melchior Schulte

Last reported at 2018-Apr-19 15:35 UTC. Time now 2018-Apr-24 07:08 UTC.
Position N 31°55' W 080°35'.

Length 190 m; draft 10.5 m.

Type: Ship (hazmat cat A). MMSI: 565382000.

Date/timePositionNaut miles runAvg speedWind from/ knotsBaromVisibWave heightAir tempDewpointWater temp
2018-Apr-19 15:35N 31°55' W 080°35'1 9.6
2018-Apr-19 15:30N 31°55' W 080°35'5 9.6
2018-Apr-19 15:00N 31°57' W 080°41'511.0
2018-Apr-19 14:30N 31°59' W 080°47'612.4
2018-Apr-19 14:00N 32°02' W 080°53'510.6
2018-Apr-19 13:30N 32°05' W 080°59'4 8.2
2018-Apr-19 13:00N 32°05' W 081°04'3 6.9
2018-Apr-19 12:30N 32°06' W 081°07'1 2.1
2018-Apr-19 12:00N 32°07' W 081°08'0 0.0
2018-Apr-19 11:30N 32°07' W 081°08'0 0.0
2018-Apr-19 11:00N 32°07' W 081°08'0 0.0
2018-Apr-19 10:30N 32°07' W 081°08'0 0.0
2018-Apr-19 10:00N 32°07' W 081°08'0 0.0
2018-Apr-19 09:30N 32°07' W 081°08'0 0.0
2018-Apr-19 09:00N 32°07' W 081°08'0 0.0
2018-Apr-19 08:30N 32°07' W 081°08'0 0.0
2018-Apr-19 07:54N 32°07' W 081°08'0 0.0
2018-Apr-19 07:30N 32°07' W 081°08'0 0.0
2018-Apr-19 07:00N 32°07' W 081°08'0 0.0
2018-Apr-19 06:30N 32°07' W 081°08'0 0.0
2018-Apr-19 06:00N 32°07' W 081°08'0 0.0
2018-Apr-19 05:30N 32°07' W 081°08'0 0.0
2018-Apr-19 05:00N 32°07' W 081°08'0 0.0
2018-Apr-19 04:30N 32°07' W 081°08'0 0.0
2018-Apr-19 04:00N 32°07' W 081°08'0 0.0
2018-Apr-19 03:30N 32°07' W 081°08'0 0.0
2018-Apr-19 02:48N 32°07' W 081°08'0 0.0
2018-Apr-19 02:18N 32°07' W 081°08'0 0.0
2018-Apr-19 02:00N 32°07' W 081°08'0 0.0
2018-Apr-19 01:30N 32°07' W 081°08'0 0.0
2018-Apr-19 01:00N 32°07' W 081°08'0 0.0
2018-Apr-19 00:30N 32°07' W 081°08'0 0.0
2018-Apr-18 23:48N 32°07' W 081°08'0 0.0
2018-Apr-18 23:24N 32°07' W 081°08'0 0.0
2018-Apr-18 22:30N 32°07' W 081°08'0 0.0
2018-Apr-18 22:00N 32°07' W 081°08'0 0.0
2018-Apr-18 21:18N 32°07' W 081°08'0 0.0
2018-Apr-18 21:00N 32°07' W 081°08'0 0.0
2018-Apr-18 20:30N 32°07' W 081°08'0 0.0
2018-Apr-18 20:00N 32°07' W 081°08'0 0.0
2018-Apr-18 19:24N 32°07' W 081°08'0 0.0
2018-Apr-18 19:00N 32°07' W 081°08'0 0.0
2018-Apr-18 18:24N 32°07' W 081°08'0 0.0
2018-Apr-18 17:42N 32°07' W 081°08'0 0.1
2018-Apr-18 17:30N 32°07' W 081°08'0 0.0
2018-Apr-18 17:00N 32°07' W 081°08'0 0.0
2018-Apr-18 16:30N 32°07' W 081°08'0 0.0
2018-Apr-18 16:00N 32°07' W 081°08'0 0.0
2018-Apr-18 15:24N 32°07' W 081°08'0 0.1
2018-Apr-18 15:00N 32°07' W 081°08'2 4.3
2018-Apr-18 14:30N 32°06' W 081°06'3 6.2
2018-Apr-18 14:00N 32°05' W 081°03'4 8.1
2018-Apr-18 13:30N 32°04' W 080°58'612.3
2018-Apr-18 13:01N 32°02' W 080°51'714.4
2018-Apr-18 12:31N 31°58' W 080°44'510.9
2018-Apr-18 12:00N 31°56' W 080°38'5 9.6
2018-Apr-18 11:30N 31°56' W 080°33'5 9.6
2018-Apr-18 11:00N 31°56' W 080°27'4 7.4
2018-Apr-18 10:30N 31°56' W 080°22'611.0
2018-Apr-18 10:00N 31°56' W 080°16'714.8
2018-Apr-18 09:30N 31°59' W 080°08'714.6
2018-Apr-18 09:00N 32°03' W 080°00'35511.9
2018-Apr-17 03:05N 36°49' W 075°47'1 9.6
2018-Apr-17 03:00N 36°49' W 075°48'5 9.6
2018-Apr-17 02:30N 36°52' W 075°53'5 9.7
2018-Apr-17 02:00N 36°55' W 075°57'5 9.4
2018-Apr-17 01:30N 36°57' W 076°02'816.4
2018-Apr-17 01:00N 36°60' W 076°12'713.4
2018-Apr-17 00:30N 36°58' W 076°20'5 9.9
2018-Apr-17 00:00N 36°53' W 076°20'2 3.2
2018-Apr-16 23:26N 36°51' W 076°19'0 0.0
2018-Apr-16 22:53N 36°51' W 076°19'0 0.0
2018-Apr-16 22:29N 36°51' W 076°19'0 0.0
2018-Apr-16 21:59N 36°51' W 076°19'0 0.0
2018-Apr-16 21:29N 36°51' W 076°19'0 0.0
2018-Apr-16 20:56N 36°51' W 076°19'0 0.0
2018-Apr-16 20:20N 36°51' W 076°19'0 0.0
2018-Apr-16 19:56N 36°51' W 076°19'0 0.0
2018-Apr-16 19:26N 36°51' W 076°19'0 0.0
2018-Apr-16 18:59N 36°51' W 076°19'0 0.0
2018-Apr-16 18:26N 36°51' W 076°19'0 0.0
2018-Apr-16 17:59N 36°51' W 076°19'0 0.0
2018-Apr-16 17:26N 36°51' W 076°19'0 0.0
2018-Apr-16 16:59N 36°51' W 076°19'0 0.0
2018-Apr-16 16:29N 36°51' W 076°19'0 0.0
2018-Apr-16 15:56N 36°51' W 076°19'0 0.0
2018-Apr-16 15:20N 36°51' W 076°19'0 0.0
2018-Apr-16 14:59N 36°51' W 076°19'0 0.0
2018-Apr-16 14:29N 36°51' W 076°19'0 0.0
2018-Apr-16 13:59N 36°51' W 076°19'0 0.0
2018-Apr-16 13:29N 36°51' W 076°19'0 0.0
2018-Apr-16 12:59N 36°51' W 076°19'0 0.0
2018-Apr-16 12:29N 36°51' W 076°19'0 0.0
2018-Apr-16 11:59N 36°51' W 076°19'0 0.0
2018-Apr-16 11:29N 36°51' W 076°19'0 0.0
2018-Apr-16 10:59N 36°51' W 076°19'0 0.0
2018-Apr-16 10:29N 36°51' W 076°19'0 0.0
2018-Apr-16 09:59N 36°51' W 076°19'0 0.0
2018-Apr-16 09:31N 36°51' W 076°19'1 1.5
2018-Apr-16 09:00N 36°52' W 076°20'4 7.9
2018-Apr-16 08:31N 36°56' W 076°20'610.2
2018-Apr-16 07:58N 37°00' W 076°16'715.2
2018-Apr-16 07:30N 36°59' W 076°07'714.5
2018-Apr-16 07:01N 36°57' W 075°59'4 7.9
2018-Apr-16 06:30N 36°55' W 075°54'4 8.7
2018-Apr-16 06:01N 36°52' W 075°50'17411.6
2018-Apr-15 14:58N 39°20' W 073°55'916.3
2018-Apr-15 14:27N 39°29' W 073°53'716.0
2018-Apr-15 13:59N 39°36' W 073°52'815.7
2018-Apr-15 13:27N 39°44' W 073°51'715.4
2018-Apr-15 12:59N 39°51' W 073°50'3012.1
2018-Apr-15 10:32N 40°21' W 073°49'0 9.4
2018-Apr-15 10:30N 40°21' W 073°49'5 9.7
2018-Apr-15 10:00N 40°26' W 073°48'3 6.9
2018-Apr-15 09:30N 40°28' W 073°52'611.0
2018-Apr-15 09:00N 40°31' W 073°58'713.4
2018-Apr-15 08:30N 40°36' W 074°03'4 7.7
2018-Apr-15 08:00N 40°39' W 074°07'2 4.0
2018-Apr-15 07:31N 40°40' W 074°09'0 0.2
2018-Apr-15 07:00N 40°40' W 074°09'0 0.0
2018-Apr-15 06:30N 40°40' W 074°09'0 0.0
2018-Apr-15 06:00N 40°40' W 074°09'0 0.0
2018-Apr-15 05:30N 40°40' W 074°09'0 0.0
2018-Apr-15 05:00N 40°40' W 074°09'0 0.0
2018-Apr-15 04:30N 40°40' W 074°09'0 0.0
2018-Apr-15 04:00N 40°40' W 074°09'0 0.0
2018-Apr-15 03:30N 40°40' W 074°09'0 0.0
2018-Apr-15 03:00N 40°40' W 074°09'0 0.0
2018-Apr-15 02:30N 40°40' W 074°09'0 0.0
2018-Apr-15 02:00N 40°40' W 074°09'0 0.0
2018-Apr-15 01:30N 40°40' W 074°09'0 0.0
2018-Apr-15 00:57N 40°40' W 074°09'0 0.0
2018-Apr-15 00:30N 40°40' W 074°09'0 0.0
2018-Apr-15 00:00N 40°40' W 074°09'0 0.0
2018-Apr-14 23:27N 40°40' W 074°09'0 0.0
2018-Apr-14 23:00N 40°40' W 074°09'0 0.0
2018-Apr-14 22:30N 40°40' W 074°09'0 0.0
2018-Apr-14 21:57N 40°40' W 074°09'0 0.0
2018-Apr-14 21:30N 40°40' W 074°09'0 0.0
2018-Apr-14 21:00N 40°40' W 074°09'0 0.0
2018-Apr-14 20:30N 40°40' W 074°09'0 0.0
2018-Apr-14 20:00N 40°40' W 074°09'0 0.0
2018-Apr-14 19:27N 40°40' W 074°09'0 0.0
2018-Apr-14 19:00N 40°40' W 074°09'0 0.0
2018-Apr-14 18:30N 40°40' W 074°09'0 0.0
2018-Apr-14 18:00N 40°40' W 074°09'0 0.0
2018-Apr-14 17:30N 40°40' W 074°09'0 0.0
2018-Apr-14 17:00N 40°40' W 074°09'0 0.0
2018-Apr-14 16:30N 40°40' W 074°09'0 0.0
2018-Apr-14 16:00N 40°40' W 074°09'0 0.0
2018-Apr-14 15:30N 40°40' W 074°09'0 0.0
2018-Apr-14 15:00N 40°40' W 074°09'0 0.0
2018-Apr-14 14:30N 40°40' W 074°09'0 0.0
2018-Apr-14 14:00N 40°40' W 074°09'0 0.0
2018-Apr-14 13:30N 40°40' W 074°09'0 0.0
2018-Apr-14 13:00N 40°40' W 074°09'0 0.0
2018-Apr-14 12:30N 40°40' W 074°09'0 0.0
2018-Apr-14 12:00N 40°40' W 074°09'0 0.0
2018-Apr-14 11:30N 40°40' W 074°09'0 0.0
2018-Apr-14 11:00N 40°40' W 074°09'0 0.0
2018-Apr-14 10:30N 40°40' W 074°09'0 0.0
2018-Apr-14 10:00N 40°40' W 074°09'0 0.0
2018-Apr-14 09:30N 40°40' W 074°09'0 1.0
2018-Apr-14 09:00N 40°39' W 074°09'3 5.2
2018-Apr-14 08:30N 40°39' W 074°05'4 8.4
2018-Apr-14 08:01N 40°35' W 074°02'714.3
2018-Apr-14 07:31N 40°30' W 073°56'713.1
2018-Apr-14 07:01N 40°27' W 073°49'3 6.1
2018-Apr-14 06:30N 40°24' W 073°47'4 7.1
2018-Apr-14 05:59N 40°21' W 073°46'4 8.2
2018-Apr-14 05:30N 40°17' W 073°45'25 9.2
2018-Apr-14 02:45N 39°52' W 073°40'2 8.8
2018-Apr-14 02:30N 39°50' W 073°39'26 4.4
2018-Apr-13 20:38N 39°26' W 073°27'15 9.0
2018-Apr-13 18:58N 39°12' W 073°18'  
Track history (hours):
 
Tides and Currents Weather Stations Pressure Air Temp Water Temp Dewpoint Dewpoint Depression Visibility Wind Speed Wind Dir Waves Ship Positions

Melchior Schulte

Last reported at 2018-Apr-19 15:35 UTC. Time now 2018-Apr-24 07:08 UTC.
Position N 31°55' W 080°35'.

Length 190 m; draft 10.5 m.

Type: Ship (hazmat cat A). MMSI: 565382000.

Date/timePositionNaut miles runAvg speedWind from/ knotsBaromVisibWave heightAir tempDewpointWater temp
2018-Apr-19 15:35N 31°55' W 080°35'1 9.6
2018-Apr-19 15:30N 31°55' W 080°35'5 9.6
2018-Apr-19 15:00N 31°57' W 080°41'511.0
2018-Apr-19 14:30N 31°59' W 080°47'612.4
2018-Apr-19 14:00N 32°02' W 080°53'510.6
2018-Apr-19 13:30N 32°05' W 080°59'4 8.2
2018-Apr-19 13:00N 32°05' W 081°04'3 6.9
2018-Apr-19 12:30N 32°06' W 081°07'1 2.1
2018-Apr-19 12:00N 32°07' W 081°08'0 0.0
2018-Apr-19 11:30N 32°07' W 081°08'0 0.0
2018-Apr-19 11:00N 32°07' W 081°08'0 0.0
2018-Apr-19 10:30N 32°07' W 081°08'0 0.0
2018-Apr-19 10:00N 32°07' W 081°08'0 0.0
2018-Apr-19 09:30N 32°07' W 081°08'0 0.0
2018-Apr-19 09:00N 32°07' W 081°08'0 0.0
2018-Apr-19 08:30N 32°07' W 081°08'0 0.0
2018-Apr-19 07:54N 32°07' W 081°08'0 0.0
2018-Apr-19 07:30N 32°07' W 081°08'0 0.0
2018-Apr-19 07:00N 32°07' W 081°08'0 0.0
2018-Apr-19 06:30N 32°07' W 081°08'0 0.0
2018-Apr-19 06:00N 32°07' W 081°08'0 0.0
2018-Apr-19 05:30N 32°07' W 081°08'0 0.0
2018-Apr-19 05:00N 32°07' W 081°08'0 0.0
2018-Apr-19 04:30N 32°07' W 081°08'0 0.0
2018-Apr-19 04:00N 32°07' W 081°08'0 0.0
2018-Apr-19 03:30N 32°07' W 081°08'0 0.0
2018-Apr-19 02:48N 32°07' W 081°08'0 0.0
2018-Apr-19 02:18N 32°07' W 081°08'0 0.0
2018-Apr-19 02:00N 32°07' W 081°08'0 0.0
2018-Apr-19 01:30N 32°07' W 081°08'0 0.0
2018-Apr-19 01:00N 32°07' W 081°08'0 0.0
2018-Apr-19 00:30N 32°07' W 081°08'0 0.0
2018-Apr-18 23:48N 32°07' W 081°08'0 0.0
2018-Apr-18 23:24N 32°07' W 081°08'0 0.0
2018-Apr-18 22:30N 32°07' W 081°08'0 0.0
2018-Apr-18 22:00N 32°07' W 081°08'0 0.0
2018-Apr-18 21:18N 32°07' W 081°08'0 0.0
2018-Apr-18 21:00N 32°07' W 081°08'0 0.0
2018-Apr-18 20:30N 32°07' W 081°08'0 0.0
2018-Apr-18 20:00N 32°07' W 081°08'0 0.0
2018-Apr-18 19:24N 32°07' W 081°08'0 0.0
2018-Apr-18 19:00N 32°07' W 081°08'0 0.0
2018-Apr-18 18:24N 32°07' W 081°08'0 0.0
2018-Apr-18 17:42N 32°07' W 081°08'0 0.1
2018-Apr-18 17:30N 32°07' W 081°08'0 0.0
2018-Apr-18 17:00N 32°07' W 081°08'0 0.0
2018-Apr-18 16:30N 32°07' W 081°08'0 0.0
2018-Apr-18 16:00N 32°07' W 081°08'0 0.0
2018-Apr-18 15:24N 32°07' W 081°08'0 0.1
2018-Apr-18 15:00N 32°07' W 081°08'2 4.3
2018-Apr-18 14:30N 32°06' W 081°06'3 6.2
2018-Apr-18 14:00N 32°05' W 081°03'4 8.1
2018-Apr-18 13:30N 32°04' W 080°58'612.3
2018-Apr-18 13:01N 32°02' W 080°51'714.4
2018-Apr-18 12:31N 31°58' W 080°44'510.9
2018-Apr-18 12:00N 31°56' W 080°38'5 9.6
2018-Apr-18 11:30N 31°56' W 080°33'5 9.6
2018-Apr-18 11:00N 31°56' W 080°27'4 7.4
2018-Apr-18 10:30N 31°56' W 080°22'611.0
2018-Apr-18 10:00N 31°56' W 080°16'714.8
2018-Apr-18 09:30N 31°59' W 080°08'714.6
2018-Apr-18 09:00N 32°03' W 080°00'35511.9
2018-Apr-17 03:05N 36°49' W 075°47'1 9.6
2018-Apr-17 03:00N 36°49' W 075°48'5 9.6
2018-Apr-17 02:30N 36°52' W 075°53'5 9.7
2018-Apr-17 02:00N 36°55' W 075°57'5 9.4
2018-Apr-17 01:30N 36°57' W 076°02'816.4
2018-Apr-17 01:00N 36°60' W 076°12'713.4
2018-Apr-17 00:30N 36°58' W 076°20'5 9.9
2018-Apr-17 00:00N 36°53' W 076°20'2 3.2
2018-Apr-16 23:26N 36°51' W 076°19'0 0.0
2018-Apr-16 22:53N 36°51' W 076°19'0 0.0
2018-Apr-16 22:29N 36°51' W 076°19'0 0.0
2018-Apr-16 21:59N 36°51' W 076°19'0 0.0
2018-Apr-16 21:29N 36°51' W 076°19'0 0.0
2018-Apr-16 20:56N 36°51' W 076°19'0 0.0
2018-Apr-16 20:20N 36°51' W 076°19'0 0.0
2018-Apr-16 19:56N 36°51' W 076°19'0 0.0
2018-Apr-16 19:26N 36°51' W 076°19'0 0.0
2018-Apr-16 18:59N 36°51' W 076°19'0 0.0
2018-Apr-16 18:26N 36°51' W 076°19'0 0.0
2018-Apr-16 17:59N 36°51' W 076°19'0 0.0
2018-Apr-16 17:26N 36°51' W 076°19'0 0.0
2018-Apr-16 16:59N 36°51' W 076°19'0 0.0
2018-Apr-16 16:29N 36°51' W 076°19'0 0.0
2018-Apr-16 15:56N 36°51' W 076°19'0 0.0
2018-Apr-16 15:20N 36°51' W 076°19'0 0.0
2018-Apr-16 14:59N 36°51' W 076°19'0 0.0
2018-Apr-16 14:29N 36°51' W 076°19'0 0.0
2018-Apr-16 13:59N 36°51' W 076°19'0 0.0
2018-Apr-16 13:29N 36°51' W 076°19'0 0.0
2018-Apr-16 12:59N 36°51' W 076°19'0 0.0
2018-Apr-16 12:29N 36°51' W 076°19'0 0.0
2018-Apr-16 11:59N 36°51' W 076°19'0 0.0
2018-Apr-16 11:29N 36°51' W 076°19'0 0.0
2018-Apr-16 10:59N 36°51' W 076°19'0 0.0
2018-Apr-16 10:29N 36°51' W 076°19'0 0.0
2018-Apr-16 09:59N 36°51' W 076°19'0 0.0
2018-Apr-16 09:31N 36°51' W 076°19'1 1.5
2018-Apr-16 09:00N 36°52' W 076°20'4 7.9
2018-Apr-16 08:31N 36°56' W 076°20'610.2
2018-Apr-16 07:58N 37°00' W 076°16'715.2
2018-Apr-16 07:30N 36°59' W 076°07'714.5
2018-Apr-16 07:01N 36°57' W 075°59'4 7.9
2018-Apr-16 06:30N 36°55' W 075°54'4 8.7
2018-Apr-16 06:01N 36°52' W 075°50'17411.6
2018-Apr-15 14:58N 39°20' W 073°55'916.3
2018-Apr-15 14:27N 39°29' W 073°53'716.0
2018-Apr-15 13:59N 39°36' W 073°52'815.7
2018-Apr-15 13:27N 39°44' W 073°51'715.4
2018-Apr-15 12:59N 39°51' W 073°50'3012.1
2018-Apr-15 10:32N 40°21' W 073°49'0 9.4
2018-Apr-15 10:30N 40°21' W 073°49'5 9.7
2018-Apr-15 10:00N 40°26' W 073°48'3 6.9
2018-Apr-15 09:30N 40°28' W 073°52'611.0
2018-Apr-15 09:00N 40°31' W 073°58'713.4
2018-Apr-15 08:30N 40°36' W 074°03'4 7.7
2018-Apr-15 08:00N 40°39' W 074°07'2 4.0
2018-Apr-15 07:31N 40°40' W 074°09'0 0.2
2018-Apr-15 07:00N 40°40' W 074°09'0 0.0
2018-Apr-15 06:30N 40°40' W 074°09'0 0.0
2018-Apr-15 06:00N 40°40' W 074°09'0 0.0
2018-Apr-15 05:30N 40°40' W 074°09'0 0.0
2018-Apr-15 05:00N 40°40' W 074°09'0 0.0
2018-Apr-15 04:30N 40°40' W 074°09'0 0.0
2018-Apr-15 04:00N 40°40' W 074°09'0 0.0
2018-Apr-15 03:30N 40°40' W 074°09'0 0.0
2018-Apr-15 03:00N 40°40' W 074°09'0 0.0
2018-Apr-15 02:30N 40°40' W 074°09'0 0.0
2018-Apr-15 02:00N 40°40' W 074°09'0 0.0
2018-Apr-15 01:30N 40°40' W 074°09'0 0.0
2018-Apr-15 00:57N 40°40' W 074°09'0 0.0
2018-Apr-15 00:30N 40°40' W 074°09'0 0.0
2018-Apr-15 00:00N 40°40' W 074°09'0 0.0
2018-Apr-14 23:27N 40°40' W 074°09'0 0.0
2018-Apr-14 23:00N 40°40' W 074°09'0 0.0
2018-Apr-14 22:30N 40°40' W 074°09'0 0.0
2018-Apr-14 21:57N 40°40' W 074°09'0 0.0
2018-Apr-14 21:30N 40°40' W 074°09'0 0.0
2018-Apr-14 21:00N 40°40' W 074°09'0 0.0
2018-Apr-14 20:30N 40°40' W 074°09'0 0.0
2018-Apr-14 20:00N 40°40' W 074°09'0 0.0
2018-Apr-14 19:27N 40°40' W 074°09'0 0.0
2018-Apr-14 19:00N 40°40' W 074°09'0 0.0
2018-Apr-14 18:30N 40°40' W 074°09'0 0.0
2018-Apr-14 18:00N 40°40' W 074°09'0 0.0
2018-Apr-14 17:30N 40°40' W 074°09'0 0.0
2018-Apr-14 17:00N 40°40' W 074°09'0 0.0
2018-Apr-14 16:30N 40°40' W 074°09'0 0.0
2018-Apr-14 16:00N 40°40' W 074°09'0 0.0
2018-Apr-14 15:30N 40°40' W 074°09'0 0.0
2018-Apr-14 15:00N 40°40' W 074°09'0 0.0
2018-Apr-14 14:30N 40°40' W 074°09'0 0.0
2018-Apr-14 14:00N 40°40' W 074°09'0 0.0
2018-Apr-14 13:30N 40°40' W 074°09'0 0.0
2018-Apr-14 13:00N 40°40' W 074°09'0 0.0
2018-Apr-14 12:30N 40°40' W 074°09'0 0.0
2018-Apr-14 12:00N 40°40' W 074°09'0 0.0
2018-Apr-14 11:30N 40°40' W 074°09'0 0.0
2018-Apr-14 11:00N 40°40' W 074°09'0 0.0
2018-Apr-14 10:30N 40°40' W 074°09'0 0.0
2018-Apr-14 10:00N 40°40' W 074°09'0 0.0
2018-Apr-14 09:30N 40°40' W 074°09'0 1.0
2018-Apr-14 09:00N 40°39' W 074°09'3 5.2
2018-Apr-14 08:30N 40°39' W 074°05'4 8.4
2018-Apr-14 08:01N 40°35' W 074°02'714.3
2018-Apr-14 07:31N 40°30' W 073°56'713.1
2018-Apr-14 07:01N 40°27' W 073°49'3 6.1
2018-Apr-14 06:30N 40°24' W 073°47'4 7.1
2018-Apr-14 05:59N 40°21' W 073°46'4 8.2
2018-Apr-14 05:30N 40°17' W 073°45'25 9.2
2018-Apr-14 02:45N 39°52' W 073°40'2 8.8
2018-Apr-14 02:30N 39°50' W 073°39'26 4.4
2018-Apr-13 20:38N 39°26' W 073°27'15 9.0
2018-Apr-13 18:58N 39°12' W 073°18'  

Dump ship's entire track history